createdAt,value
2023-01-26T00:00:09.578Z,5.21
2023-01-26T00:02:38.363Z,5.12
2023-01-26T00:05:08.742Z,5.15
2023-01-26T00:07:42.690Z,5.20
2023-01-26T00:10:12.334Z,5.16
2023-01-26T00:12:40.600Z,4.99
2023-01-26T00:15:09.508Z,5.01
2023-01-26T00:17:38.326Z,4.94
2023-01-26T00:20:13.673Z,4.96
2023-01-26T00:22:41.831Z,5.03
2023-01-26T00:25:10.639Z,4.96
2023-01-26T00:27:38.675Z,4.98
2023-01-26T00:30:12.277Z,4.95
2023-01-26T00:32:40.470Z,5.08
2023-01-26T00:35:10.607Z,5.20
2023-01-26T00:37:43.348Z,5.10
2023-01-26T00:40:12.862Z,4.86
2023-01-26T00:42:41.486Z,4.88
2023-01-26T00:45:10.746Z,4.96
2023-01-26T00:47:39.587Z,5.07
2023-01-26T00:50:11.050Z,5.15
2023-01-26T00:52:39.412Z,5.18
2023-01-26T00:55:08.339Z,5.15
2023-01-26T00:57:36.407Z,5.19
2023-01-26T01:00:06.165Z,5.15
2023-01-26T01:02:34.197Z,5.20
2023-01-26T01:05:02.227Z,5.14
2023-01-26T01:07:31.594Z,5.06
2023-01-26T01:10:02.081Z,4.92
2023-01-26T01:12:30.152Z,5.01
2023-01-26T01:14:58.238Z,5.14
2023-01-26T01:17:26.687Z,5.06
2023-01-26T01:19:54.702Z,5.00
2023-01-26T01:22:23.035Z,5.12
2023-01-26T01:24:52.422Z,5.08
2023-01-26T01:27:20.459Z,5.13
2023-01-26T01:29:50.376Z,5.14
2023-01-26T01:32:18.541Z,5.21
2023-01-26T01:34:48.381Z,5.17
2023-01-26T01:37:16.985Z,5.22
2023-01-26T01:39:45.062Z,5.17
2023-01-26T01:42:14.471Z,5.16
2023-01-26T01:44:44.765Z,5.16
2023-01-26T01:47:20.379Z,5.18
2023-01-26T01:49:51.899Z,5.18
2023-01-26T01:52:27.357Z,5.10
2023-01-26T01:55:02.081Z,5.07
2023-01-26T01:57:44.756Z,5.11
2023-01-26T02:00:16.422Z,5.04
2023-01-26T02:03:06.961Z,5.09
2023-01-26T02:05:41.277Z,4.99
2023-01-26T02:08:12.459Z,5.02
2023-01-26T02:10:40.828Z,4.99
2023-01-26T02:13:10.568Z,4.97
2023-01-26T02:15:39.300Z,4.98
2023-01-26T02:18:08.135Z,5.01
2023-01-26T02:20:46.110Z,5.03
2023-01-26T02:23:32.221Z,5.07
2023-01-26T02:26:11.387Z,5.14
2023-01-26T02:28:41.221Z,5.15
2023-01-26T02:31:10.857Z,5.15
2023-01-26T02:33:39.124Z,5.22
2023-01-26T02:36:17.010Z,5.25
2023-01-26T02:38:52.905Z,5.19
2023-01-26T02:41:36.332Z,5.15
2023-01-26T02:44:08.004Z,5.01
2023-01-26T02:46:36.263Z,5.01
2023-01-26T02:49:22.759Z,5.07
2023-01-26T02:51:50.858Z,5.11
2023-01-26T02:54:33.300Z,5.16
2023-01-26T02:57:03.778Z,4.99
2023-01-26T02:59:31.854Z,4.72
2023-01-26T03:02:00.170Z,4.83
2023-01-26T03:04:28.626Z,4.89
2023-01-26T03:06:56.787Z,4.90
2023-01-26T03:09:24.889Z,5.08
2023-01-26T03:11:53.213Z,5.06
2023-01-26T03:14:22.560Z,5.06
2023-01-26T03:16:50.847Z,5.10
2023-01-26T03:19:36.520Z,5.02
2023-01-26T03:22:28.975Z,5.04
2023-01-26T03:25:15.734Z,5.15
2023-01-26T03:27:47.966Z,5.20
2023-01-26T03:30:20.186Z,5.11
2023-01-26T03:32:50.079Z,5.08
2023-01-26T03:35:22.482Z,5.05
2023-01-26T03:37:54.551Z,5.03
2023-01-26T03:40:53.393Z,5.03
2023-01-26T03:43:39.616Z,5.07
2023-01-26T03:46:28.028Z,5.03
2023-01-26T03:49:13.830Z,5.02
2023-01-26T03:51:59.851Z,5.02
2023-01-26T03:54:45.555Z,5.08
2023-01-26T03:57:13.859Z,5.05
2023-01-26T03:59:42.244Z,4.96
2023-01-26T04:02:37.315Z,4.96
2023-01-26T04:05:24.615Z,4.90
2023-01-26T04:08:22.839Z,4.96
2023-01-26T04:10:57.499Z,4.98
2023-01-26T04:13:44.740Z,4.90
2023-01-26T04:16:38.741Z,5.00
2023-01-26T04:19:26.331Z,4.96
2023-01-26T04:21:54.357Z,4.91
2023-01-26T04:24:23.044Z,4.87
2023-01-26T04:26:55.608Z,4.91
2023-01-26T04:29:27.685Z,4.88
2023-01-26T04:31:56.414Z,4.92
2023-01-26T04:34:26.097Z,4.92
2023-01-26T04:36:54.536Z,4.89
2023-01-26T04:39:25.795Z,4.83
2023-01-26T04:41:56.872Z,4.61
2023-01-26T04:44:30.211Z,4.46
2023-01-26T04:46:58.900Z,4.50
2023-01-26T04:49:28.304Z,4.40
2023-01-26T04:51:56.764Z,4.48
2023-01-26T04:54:25.004Z,4.68
2023-01-26T04:56:53.693Z,4.79
2023-01-26T04:59:22.240Z,4.76
2023-01-26T05:01:50.276Z,4.72
2023-01-26T05:04:18.342Z,4.71
2023-01-26T05:06:49.414Z,4.63
2023-01-26T05:09:17.637Z,4.59
2023-01-26T05:11:47.186Z,4.58
2023-01-26T05:14:40.790Z,4.59
2023-01-26T05:17:19.194Z,4.55
2023-01-26T05:19:51.964Z,4.57
2023-01-26T05:22:38.884Z,4.57
2023-01-26T05:25:25.871Z,4.48
2023-01-26T05:28:00.553Z,4.55
2023-01-26T05:30:29.372Z,4.54
2023-01-26T05:33:02.927Z,4.46
2023-01-26T05:35:31.067Z,4.49
2023-01-26T05:38:01.141Z,4.47
2023-01-26T05:40:32.031Z,4.48
2023-01-26T05:43:00.900Z,4.45
2023-01-26T05:45:47.757Z,4.43
2023-01-26T05:48:17.115Z,4.43
2023-01-26T05:50:46.396Z,4.43
2023-01-26T05:53:24.559Z,4.46
2023-01-26T05:55:52.784Z,4.47
2023-01-26T05:58:23.876Z,4.41
2023-01-26T06:00:52.313Z,4.39
2023-01-26T06:03:26.120Z,4.35
2023-01-26T06:05:55.468Z,4.36
2023-01-26T06:08:50.778Z,4.38
2023-01-26T06:11:41.440Z,4.38
2023-01-26T06:14:15.749Z,4.45
2023-01-26T06:16:44.445Z,4.38
2023-01-26T06:19:13.061Z,4.44
2023-01-26T06:21:42.484Z,4.49
2023-01-26T06:24:12.219Z,4.49
2023-01-26T06:26:40.499Z,4.49
2023-01-26T06:29:08.963Z,4.44
2023-01-26T06:31:38.063Z,4.48
2023-01-26T06:34:07.141Z,4.47
2023-01-26T06:36:39.514Z,4.45
2023-01-26T06:39:12.398Z,4.47
2023-01-26T06:41:40.899Z,4.43
2023-01-26T06:44:10.099Z,4.51
2023-01-26T06:46:38.603Z,4.40
2023-01-26T06:49:07.220Z,4.42
2023-01-26T06:51:56.363Z,4.40
2023-01-26T06:54:34.698Z,4.28
2023-01-26T06:57:21.472Z,4.34
2023-01-26T07:00:02.302Z,4.41
2023-01-26T07:02:45.958Z,4.42
2023-01-26T07:05:14.050Z,4.41
2023-01-26T07:07:42.089Z,4.49
2023-01-26T07:10:13.228Z,4.49
2023-01-26T07:12:43.543Z,4.48
2023-01-26T07:15:13.847Z,4.51
2023-01-26T07:17:41.876Z,4.49
2023-01-26T07:20:12.188Z,4.46
2023-01-26T07:22:40.381Z,4.49
2023-01-26T07:25:12.974Z,4.49
2023-01-26T07:27:42.440Z,4.44
2023-01-26T07:30:13.825Z,4.37
2023-01-26T07:32:42.230Z,4.41
2023-01-26T07:35:13.642Z,4.40
2023-01-26T07:37:41.685Z,4.31
2023-01-26T07:40:11.776Z,4.36
2023-01-26T07:42:40.159Z,4.43
2023-01-26T07:45:23.686Z,4.51
2023-01-26T07:47:53.190Z,4.53
2023-01-26T07:50:21.724Z,4.57
2023-01-26T07:52:52.522Z,4.54
2023-01-26T07:55:21.438Z,4.53
2023-01-26T07:57:49.559Z,4.52
2023-01-26T08:00:19.294Z,4.52
2023-01-26T08:02:52.536Z,4.57
2023-01-26T08:05:20.560Z,4.53
2023-01-26T08:07:48.781Z,4.56
2023-01-26T08:10:17.438Z,4.50
2023-01-26T08:12:45.439Z,4.48
2023-01-26T08:15:13.612Z,4.44
2023-01-26T08:17:41.605Z,4.52
2023-01-26T08:20:14.158Z,4.52
2023-01-26T08:22:43.043Z,4.50
2023-01-26T08:25:15.594Z,4.51
2023-01-26T08:27:43.619Z,4.55
2023-01-26T08:30:13.873Z,4.54
2023-01-26T08:32:42.316Z,4.49
2023-01-26T08:35:11.913Z,4.51
2023-01-26T08:37:40.053Z,4.53
2023-01-26T08:40:10.714Z,4.58
2023-01-26T08:42:38.897Z,4.64
2023-01-26T08:45:08.105Z,4.61
2023-01-26T08:47:36.201Z,4.63
2023-01-26T08:50:05.087Z,4.64
2023-01-26T08:52:34.433Z,4.70
2023-01-26T08:55:03.275Z,4.62
2023-01-26T08:57:31.275Z,4.70
2023-01-26T08:59:59.342Z,4.66
2023-01-26T09:02:27.416Z,4.70
2023-01-26T09:04:55.557Z,4.58
2023-01-26T09:07:23.603Z,4.63
2023-01-26T09:09:52.987Z,4.65
2023-01-26T09:12:21.029Z,4.65
2023-01-26T09:14:49.037Z,4.56
2023-01-26T09:17:18.205Z,4.52
2023-01-26T09:19:46.225Z,4.49
2023-01-26T09:22:14.315Z,4.52
2023-01-26T09:24:42.335Z,4.52
2023-01-26T09:27:11.719Z,4.56
2023-01-26T09:29:39.730Z,4.55
2023-01-26T09:32:07.785Z,4.56
2023-01-26T09:34:35.859Z,4.51
2023-01-26T09:37:03.899Z,4.53
2023-01-26T09:39:31.891Z,4.49
2023-01-26T09:42:28.300Z,4.46
2023-01-26T09:45:08.136Z,4.47
2023-01-26T09:48:03.869Z,4.52
2023-01-26T09:50:37.173Z,4.50
2023-01-26T09:53:13.795Z,4.57
2023-01-26T09:55:43.256Z,4.52
2023-01-26T09:58:20.661Z,4.57
2023-01-26T10:00:51.652Z,4.66
2023-01-26T10:03:27.823Z,4.72
2023-01-26T10:06:01.932Z,4.81
2023-01-26T10:09:07.629Z,4.72
2023-01-26T10:11:41.165Z,4.51
2023-01-26T10:14:16.623Z,4.60
2023-01-26T10:16:48.186Z,4.69
2023-01-26T10:19:26.808Z,4.69
2023-01-26T10:22:00.145Z,4.72
2023-01-26T10:24:28.835Z,4.70
2023-01-26T10:26:59.137Z,4.71
2023-01-26T10:29:28.602Z,4.69
2023-01-26T10:31:56.690Z,4.67
2023-01-26T10:34:27.432Z,4.81
2023-01-26T10:37:03.239Z,4.71
2023-01-26T10:39:31.260Z,4.58
2023-01-26T10:42:01.754Z,4.60
2023-01-26T10:44:35.740Z,4.70
2023-01-26T10:47:07.868Z,4.71
2023-01-26T10:49:35.940Z,4.67
2023-01-26T10:52:15.593Z,4.73
2023-01-26T10:54:44.698Z,4.46
2023-01-26T10:57:29.019Z,4.61
2023-01-26T11:00:01.513Z,4.39
2023-01-26T11:02:32.066Z,4.45
2023-01-26T11:05:21.706Z,4.36
2023-01-26T11:07:54.237Z,4.22
2023-01-26T11:10:31.573Z,4.35
2023-01-26T11:13:18.101Z,4.50
2023-01-26T11:15:50.263Z,4.30
2023-01-26T11:18:33.756Z,4.44
2023-01-26T11:21:08.278Z,4.45
2023-01-26T11:23:50.164Z,4.36
2023-01-26T11:26:53.171Z,4.50
2023-01-26T11:29:52.814Z,4.49
2023-01-26T11:32:35.898Z,4.62
2023-01-26T11:35:17.058Z,4.63
2023-01-26T11:37:48.589Z,4.63
2023-01-26T11:40:32.051Z,4.61
2023-01-26T11:43:28.263Z,4.55
2023-01-26T11:46:26.741Z,4.51
2023-01-26T11:49:13.313Z,4.49
2023-01-26T11:51:58.092Z,4.16
2023-01-26T11:54:45.313Z,3.87
2023-01-26T11:57:27.664Z,3.61
2023-01-26T12:00:04.022Z,3.54
2023-01-26T12:02:43.219Z,3.85
2023-01-26T12:05:20.877Z,3.97
2023-01-26T12:07:57.000Z,4.17
2023-01-26T12:10:30.744Z,4.30
2023-01-26T12:13:09.043Z,4.32
2023-01-26T12:15:40.633Z,4.29
2023-01-26T12:18:19.343Z,4.36
2023-01-26T12:20:56.584Z,4.40
2023-01-26T12:23:36.639Z,4.35
2023-01-26T12:26:11.752Z,4.37
2023-01-26T12:28:48.934Z,4.42
2023-01-26T12:31:24.793Z,4.23
2023-01-26T12:33:56.902Z,4.02
2023-01-26T12:36:49.065Z,4.04
2023-01-26T12:39:27.356Z,3.83
2023-01-26T12:42:19.732Z,3.95
2023-01-26T12:44:54.196Z,4.15
2023-01-26T12:47:31.624Z,4.31
2023-01-26T12:50:05.356Z,4.39
2023-01-26T12:52:43.491Z,4.39
2023-01-26T12:55:17.876Z,4.47
2023-01-26T12:57:52.667Z,4.13
2023-01-26T13:00:25.480Z,3.97
2023-01-26T13:02:57.766Z,3.98
2023-01-26T13:05:30.342Z,3.86
2023-01-26T13:07:59.977Z,3.83
2023-01-26T13:10:44.034Z,4.01
2023-01-26T13:13:31.549Z,3.95
2023-01-26T13:16:34.760Z,4.10
2023-01-26T13:19:03.766Z,3.92
2023-01-26T13:21:44.865Z,3.98
2023-01-26T13:24:46.977Z,4.12
2023-01-26T13:27:33.792Z,4.22
2023-01-26T13:30:02.212Z,4.12
2023-01-26T13:33:09.924Z,4.09
2023-01-26T13:35:39.001Z,4.22
2023-01-26T13:38:19.040Z,4.28
2023-01-26T13:40:50.873Z,4.28
2023-01-26T13:43:29.201Z,4.21
2023-01-26T13:46:18.699Z,4.17
2023-01-26T13:48:49.805Z,4.15
2023-01-26T13:51:21.640Z,4.10
2023-01-26T13:53:59.909Z,4.18
2023-01-26T13:56:33.692Z,4.12
2023-01-26T13:59:11.895Z,4.17
2023-01-26T14:01:45.909Z,4.24
2023-01-26T14:04:20.125Z,4.24
2023-01-26T14:06:53.658Z,4.08
2023-01-26T14:09:21.995Z,4.16
2023-01-26T14:11:59.560Z,4.08
2023-01-26T14:14:30.877Z,4.20
2023-01-26T14:16:59.771Z,4.25
2023-01-26T14:19:29.495Z,4.28
2023-01-26T14:22:00.062Z,3.98
2023-01-26T14:24:36.103Z,4.04
2023-01-26T14:27:05.525Z,4.18
2023-01-26T14:29:40.217Z,4.22
2023-01-26T14:32:17.381Z,4.19
2023-01-26T14:34:54.037Z,4.17
2023-01-26T14:37:22.526Z,4.17
2023-01-26T14:39:51.280Z,4.24
2023-01-26T14:42:22.101Z,4.26
2023-01-26T14:44:50.147Z,4.35
2023-01-26T14:47:22.783Z,4.40
2023-01-26T14:49:57.275Z,4.38
2023-01-26T14:52:28.596Z,4.35
2023-01-26T14:55:00.390Z,4.38
2023-01-26T14:57:31.827Z,4.32
2023-01-26T15:00:02.548Z,4.29
2023-01-26T15:02:38.058Z,4.35
2023-01-26T15:05:16.987Z,4.31
2023-01-26T15:07:47.191Z,4.33
2023-01-26T15:10:36.672Z,4.26
2023-01-26T15:13:19.284Z,4.15
2023-01-26T15:15:49.644Z,4.25
2023-01-26T15:18:22.213Z,4.33
2023-01-26T15:21:00.716Z,4.30
2023-01-26T15:23:31.906Z,4.29
2023-01-26T15:26:08.210Z,4.30
2023-01-26T15:28:38.782Z,4.28
2023-01-26T15:31:08.182Z,4.17
2023-01-26T15:33:45.216Z,4.14
2023-01-26T15:36:34.520Z,4.19
2023-01-26T15:39:13.114Z,4.11
2023-01-26T15:41:41.696Z,4.07
2023-01-26T15:44:17.081Z,4.07
2023-01-26T15:46:45.884Z,4.15
2023-01-26T15:49:14.546Z,4.21
2023-01-26T15:51:42.771Z,4.19
2023-01-26T15:54:12.313Z,4.06
2023-01-26T15:56:40.403Z,4.11
2023-01-26T15:59:08.398Z,4.09
2023-01-26T16:01:37.881Z,4.09
2023-01-26T16:04:06.250Z,4.24
2023-01-26T16:06:35.854Z,4.17
2023-01-26T16:09:04.038Z,4.06
2023-01-26T16:11:36.094Z,4.14
2023-01-26T16:14:04.599Z,4.14
2023-01-26T16:16:33.682Z,4.09
2023-01-26T16:19:03.060Z,4.07
2023-01-26T16:21:39.442Z,4.08
2023-01-26T16:24:11.052Z,3.98
2023-01-26T16:26:39.208Z,3.94
2023-01-26T16:29:08.048Z,4.05
2023-01-26T16:31:36.813Z,4.05
2023-01-26T16:34:06.253Z,4.04
2023-01-26T16:36:34.431Z,4.05
2023-01-26T16:39:03.072Z,4.06
2023-01-26T16:41:33.580Z,3.95
2023-01-26T16:44:03.869Z,4.04
2023-01-26T16:46:32.137Z,4.00
2023-01-26T16:49:00.281Z,4.01
2023-01-26T16:51:33.519Z,4.03
2023-01-26T16:54:01.637Z,3.96
2023-01-26T16:56:29.825Z,3.94
2023-01-26T16:58:57.936Z,3.96
2023-01-26T17:01:28.743Z,3.96
2023-01-26T17:03:57.591Z,4.00
2023-01-26T17:06:25.994Z,3.92
2023-01-26T17:08:56.567Z,3.92
2023-01-26T17:11:28.113Z,3.98
2023-01-26T17:13:56.957Z,3.89
2023-01-26T17:16:27.047Z,3.82
2023-01-26T17:18:55.182Z,3.91
2023-01-26T17:21:24.009Z,3.95
2023-01-26T17:23:53.876Z,3.76
2023-01-26T17:26:23.635Z,3.77
2023-01-26T17:28:55.740Z,3.77
2023-01-26T17:31:25.798Z,3.81
2023-01-26T17:33:55.592Z,3.79
2023-01-26T17:36:24.770Z,3.86
2023-01-26T17:38:53.266Z,3.87
2023-01-26T17:41:22.907Z,3.82
2023-01-26T17:43:51.318Z,3.87
2023-01-26T17:46:22.328Z,3.86
2023-01-26T17:48:51.107Z,3.80
2023-01-26T17:54:14.005Z,3.78
2023-01-26T17:56:43.868Z,3.81
2023-01-26T17:59:12.037Z,3.71
2023-01-26T18:01:40.139Z,3.78
2023-01-26T18:04:08.235Z,3.71
2023-01-26T18:06:38.508Z,3.72
2023-01-26T18:09:06.750Z,3.69
2023-01-26T18:11:34.773Z,3.68
2023-01-26T18:14:05.487Z,3.72
2023-01-26T18:16:37.736Z,3.74
2023-01-26T18:19:30.776Z,3.71
2023-01-26T18:21:58.827Z,3.74
2023-01-26T18:24:27.037Z,3.69
2023-01-26T18:26:55.233Z,3.70
2023-01-26T18:29:24.685Z,3.73
2023-01-26T18:31:52.793Z,3.74
2023-01-26T18:34:20.902Z,3.78
2023-01-26T18:36:48.982Z,3.75
2023-01-26T18:39:17.659Z,3.71
2023-01-26T18:41:45.677Z,3.71
2023-01-26T18:44:13.690Z,3.68
2023-01-26T18:46:43.183Z,3.66
2023-01-26T18:49:11.572Z,3.66
2023-01-26T18:51:39.628Z,3.64
2023-01-26T18:54:09.571Z,3.63
2023-01-26T18:56:38.138Z,3.65
2023-01-26T18:59:07.544Z,3.79
2023-01-26T19:01:35.969Z,3.74
2023-01-26T19:04:07.172Z,3.85
2023-01-26T19:06:36.281Z,3.75
2023-01-26T19:09:08.109Z,3.67
2023-01-26T19:11:38.946Z,3.66
2023-01-26T19:14:10.172Z,3.67
2023-01-26T19:16:38.478Z,3.61
2023-01-26T19:19:08.148Z,3.60
2023-01-26T19:21:36.173Z,3.66
2023-01-26T19:24:06.048Z,3.62
2023-01-26T19:26:34.518Z,3.62
2023-01-26T19:29:02.645Z,3.59
2023-01-26T19:31:31.991Z,3.55
2023-01-26T19:34:02.450Z,3.58
2023-01-26T19:36:34.438Z,3.55
2023-01-26T19:39:03.322Z,3.57
2023-01-26T19:41:31.858Z,3.51
2023-01-26T19:44:00.826Z,3.51
2023-01-26T19:46:29.014Z,3.53
2023-01-26T19:48:57.088Z,3.59
2023-01-26T19:51:27.191Z,3.56
2023-01-26T19:53:58.736Z,3.58
2023-01-26T19:56:29.356Z,3.54
2023-01-26T19:58:59.890Z,3.54
2023-01-26T20:01:30.136Z,3.54
2023-01-26T20:04:01.392Z,3.54
2023-01-26T20:06:32.345Z,3.52
2023-01-26T20:09:03.434Z,3.49
2023-01-26T20:11:32.431Z,3.44
2023-01-26T20:14:03.016Z,3.48
2023-01-26T20:16:31.992Z,3.35
2023-01-26T20:19:00.482Z,3.43
2023-01-26T20:21:29.211Z,3.46
2023-01-26T20:23:57.377Z,3.47
2023-01-26T20:26:28.433Z,3.49
2023-01-26T20:28:58.434Z,3.56
2023-01-26T20:31:27.595Z,3.52
2023-01-26T20:33:58.187Z,3.48
2023-01-26T20:36:29.220Z,3.49
2023-01-26T20:38:57.961Z,3.53
2023-01-26T20:41:30.021Z,3.52
2023-01-26T20:44:02.032Z,3.59
2023-01-26T20:46:33.188Z,3.48
2023-01-26T20:49:01.514Z,3.46
2023-01-26T20:51:33.605Z,3.45
2023-01-26T20:54:03.040Z,3.43
2023-01-26T20:56:32.501Z,3.34
2023-01-26T20:59:03.522Z,3.41
2023-01-26T21:01:33.685Z,3.31
2023-01-26T21:04:02.326Z,3.31
2023-01-26T21:06:31.277Z,3.36
2023-01-26T21:09:02.234Z,3.39
2023-01-26T21:11:33.171Z,3.38
2023-01-26T21:14:26.587Z,3.39
2023-01-26T21:16:54.694Z,3.36
2023-01-26T21:19:22.803Z,3.31
2023-01-26T21:21:51.258Z,3.30
2023-01-26T21:24:19.372Z,3.28
2023-01-26T21:26:50.233Z,3.33
2023-01-26T21:29:18.279Z,3.34
2023-01-26T21:31:48.699Z,3.24
2023-01-26T21:34:16.756Z,3.30
2023-01-26T21:36:44.867Z,3.38
2023-01-26T21:39:15.458Z,3.42
2023-01-26T21:41:59.274Z,3.44
2023-01-26T21:44:30.470Z,3.43
2023-01-26T21:47:00.519Z,3.39
2023-01-26T21:49:29.465Z,3.46
2023-01-26T21:52:15.453Z,3.42
2023-01-26T21:54:43.491Z,3.30
2023-01-26T21:57:30.658Z,3.40
2023-01-26T22:00:00.113Z,3.47
2023-01-26T22:02:28.396Z,3.47
2023-01-26T22:04:56.675Z,3.42
2023-01-26T22:07:24.645Z,3.42
2023-01-26T22:09:52.651Z,3.46
2023-01-26T22:12:22.858Z,3.54
2023-01-26T22:14:52.570Z,3.51
2023-01-26T22:17:21.932Z,3.37
2023-01-26T22:19:49.959Z,3.46
2023-01-26T22:22:17.982Z,3.39
2023-01-26T22:24:45.964Z,3.46
2023-01-26T22:27:13.961Z,3.42
2023-01-26T22:29:41.957Z,3.48
2023-01-26T22:32:09.946Z,3.50
2023-01-26T22:34:39.317Z,3.54
2023-01-26T22:37:07.311Z,3.54
2023-01-26T22:39:35.355Z,3.53
2023-01-26T22:42:03.312Z,3.39
2023-01-26T22:44:31.365Z,3.45
2023-01-26T22:46:59.343Z,3.47
2023-01-26T22:49:27.337Z,3.42
2023-01-26T22:51:56.874Z,3.47
2023-01-26T22:54:25.985Z,3.42
2023-01-26T22:56:54.282Z,3.44
2023-01-26T22:59:22.334Z,3.46
2023-01-26T23:01:51.307Z,3.42
2023-01-26T23:04:19.399Z,3.45
2023-01-26T23:06:47.471Z,3.50
2023-01-26T23:09:16.853Z,3.51
2023-01-26T23:11:44.887Z,3.20
2023-01-26T23:14:12.913Z,2.92
2023-01-26T23:16:40.954Z,2.98
2023-01-26T23:19:09.358Z,3.11
2023-01-26T23:21:37.431Z,3.27
2023-01-26T23:24:06.069Z,3.35
2023-01-26T23:26:35.573Z,3.39
2023-01-26T23:29:03.662Z,3.28
2023-01-26T23:31:32.517Z,3.19
2023-01-26T23:34:00.846Z,3.17
2023-01-26T23:36:28.971Z,3.22
2023-01-26T23:38:56.971Z,3.11
2023-01-26T23:41:24.986Z,3.16
2023-01-26T23:43:54.392Z,3.31
2023-01-26T23:46:22.496Z,3.41
2023-01-26T23:48:50.523Z,3.31
2023-01-26T23:51:18.556Z,3.38
2023-01-26T23:53:46.578Z,3.32
2023-01-26T23:56:17.417Z,3.39
2023-01-26T23:58:45.745Z,3.39
